Lake Nichols, Minnesota
Current Conditions -  °F | °C
As of 3:55 AM on Thursday 29 Jan 2015 (Local Time) from KDLH Reporting Station
Light Snow Light Snow  
Wind Chill: 14°   Ceiling: 1100
Heat Index: 29°   Visibility: 9mi
Dew Point: 23°   Wind: 26mph
Humidity: 78%   Direction: 340°NNW
Pressure: 29.85"   Gusts: 35mph
Location:  47.068°N, 92.4547°W
Report Text: KDLH 290955Z 34023G30KT 9SM -SN OVC011 M02/M05 A2985 RMK AO2 PK WND 33030/0955 SLP130 P0000 T10171050
Loading
Personal Weather Stations






























Interactive Weather Map New forecast layout! Learn more

10-Day Weather Forecast

Advertisements
Track Severe Weather on mobile